Time;durP1;ratioP1;P1;durP2;ratioP2;P2;SDS_P1;SDS_P2;PMS_P1;PMS_P2;Temp;Humidity;BMP_temperature;BMP_pressure;BME280_temperature;BME280_humidity;BME280_pressure;Samples;Min_cycle;Max_cycle;Signal;HPM_P1;HPM_P2
2022/01/08 00:01:11;;;;;;;30.43;18.30;;;52.00;2227.20;;;;;;5033653;28;20113;-66
2022/01/08 00:03:39;;;;;;;31.23;19.03;;;52.00;2227.20;;;;;;5033527;28;20030;-66
2022/01/08 00:06:05;;;;;;;31.07;17.67;;;52.00;2227.20;;;;;;5033786;28;20036;-66
2022/01/08 00:08:31;;;;;;;32.07;19.13;;;52.00;2227.20;;;;;;5033818;28;20072;-66
2022/01/08 00:10:58;;;;;;;30.63;18.57;;;52.10;2227.20;;;;;;5033370;28;20021;-66
2022/01/08 00:13:24;;;;;;;30.00;19.07;;;52.10;2227.20;;;;;;5033507;28;20052;-66
2022/01/08 00:15:50;;;;;;;34.00;19.70;;;52.10;2227.20;;;;;;5033413;28;20049;-66
2022/01/08 00:18:15;;;;;;;29.37;19.53;;;52.00;2227.20;;;;;;5034046;28;20071;-66
2022/01/08 00:20:42;;;;;;;33.90;20.43;;;52.00;2227.20;;;;;;5032666;28;20045;-66
2022/01/08 00:23:09;;;;;;;35.50;21.50;;;52.00;2227.20;;;;;;5033459;28;20031;-66
2022/01/08 00:25:36;;;;;;;34.30;20.03;;;52.00;2227.20;;;;;;5033159;28;20031;-66
2022/01/08 00:28:02;;;;;;;32.50;20.73;;;51.90;2227.20;;;;;;5033291;28;20025;-66
2022/01/08 00:30:30;;;;;;;32.17;19.17;;;51.90;2227.20;;;;;;5033310;28;20029;-66
2022/01/08 00:32:56;;;;;;;32.57;18.83;;;51.90;2227.20;;;;;;5033299;28;20033;-66
2022/01/08 00:35:23;;;;;;;30.03;17.57;;;51.90;2227.20;;;;;;5033139;28;20026;-66
2022/01/08 00:37:50;;;;;;;28.73;18.13;;;51.90;2227.20;;;;;;5033245;28;20386;-66
2022/01/08 00:40:16;;;;;;;32.00;19.30;;;51.90;2227.20;;;;;;5033088;28;20022;-66
2022/01/08 00:42:42;;;;;;;27.77;17.93;;;52.00;2227.20;;;;;;5033722;28;20034;-66
2022/01/08 00:45:08;;;;;;;28.00;18.00;;;52.00;2227.20;;;;;;5033063;28;20024;-66
2022/01/08 00:47:34;;;;;;;29.60;17.70;;;52.00;2227.20;;;;;;5033120;28;20029;-66
2022/01/08 00:50:01;;;;;;;26.70;17.10;;;52.00;2227.20;;;;;;5033015;28;20022;-66
2022/01/08 00:52:27;;;;;;;27.73;17.23;;;52.10;2227.20;;;;;;5033052;28;20040;-66
2022/01/08 00:54:53;;;;;;;24.53;16.17;;;52.10;2227.20;;;;;;5033313;28;20048;-66
2022/01/08 00:57:19;;;;;;;28.70;17.97;;;52.10;2227.20;;;;;;5033174;28;20029;-66
2022/01/08 00:59:44;;;;;;;32.97;17.03;;;52.10;2227.20;;;;;;5033093;28;20025;-66
2022/01/08 01:02:10;;;;;;;28.07;18.10;;;52.10;2227.20;;;;;;5032819;28;20061;-65
2022/01/08 01:04:36;;;;;;;26.70;16.97;;;52.10;2227.20;;;;;;5033111;28;20490;-66
2022/01/08 01:07:02;;;;;;;26.20;16.60;;;76.80;2227.20;;;;;;5035978;28;20025;-66
2022/01/08 01:09:28;;;;;;;26.60;16.17;;;76.80;2227.20;;;;;;5037022;28;20441;-66
2022/01/08 01:11:57;;;;;;;28.03;16.43;;;52.10;2227.20;;;;;;5036808;28;20100;-66
2022/01/08 01:14:24;;;;;;;27.83;16.83;;;76.80;2227.20;;;;;;5036708;28;20021;-66
2022/01/08 01:16:50;;;;;;;27.23;18.37;;;76.80;2227.20;;;;;;5036585;28;20036;-66
2022/01/08 01:19:16;;;;;;;27.13;16.67;;;76.80;2227.20;;;;;;5018622;28;20022;-66
2022/01/08 01:21:42;;;;;;;28.23;17.17;;;76.80;2227.20;;;;;;5036234;28;20046;-66
2022/01/08 01:24:15;;;;;;;29.33;16.67;;;76.80;2227.20;;;;;;5036424;28;20105;-66
2022/01/08 01:27:08;;;;;;;29.35;16.67;;;76.80;2227.20;;;;;;5036573;28;20035;-66
2022/01/08 01:29:39;;;;;;;29.30;17.73;;;52.10;2227.20;;;;;;5035761;28;20025;-66
2022/01/08 01:48:20;;;;;;;28.10;17.87;;;52.10;2227.20;;;;;;5036266;28;20024;-66
2022/01/08 01:50:47;;;;;;;24.13;16.47;;;52.10;2227.20;;;;;;5036068;28;20030;-66
2022/01/08 01:53:13;;;;;;;26.00;17.10;;;76.80;2227.20;;;;;;5036077;28;20026;-66
2022/01/08 01:55:41;;;;;;;27.37;17.67;;;76.80;2227.20;;;;;;5035234;28;20029;-65
2022/01/08 01:58:07;;;;;;;26.70;17.30;;;76.80;2227.20;;;;;;5055642;28;20017;-66
2022/01/08 02:00:36;;;;;;;27.90;17.97;;;76.80;2227.20;;;;;;5055553;28;20043;-66
2022/01/08 02:03:02;;;;;;;27.20;17.63;;;76.80;2227.20;;;;;;5055745;28;20064;-66
2022/01/08 02:05:28;;;;;;;26.43;16.30;;;76.80;2227.20;;;;;;5055653;28;20052;-66
2022/01/08 02:07:55;;;;;;;29.00;18.80;;;76.80;2227.20;;;;;;5055497;28;20028;-66
2022/01/08 02:10:24;;;;;;;28.87;17.43;;;76.80;2227.20;;;;;;5055655;28;20104;-66
2022/01/08 02:12:51;;;;;;;26.13;16.73;;;76.80;2227.20;;;;;;5055469;28;20025;-66
2022/01/08 02:15:17;;;;;;;32.53;18.63;;;76.90;2227.20;;;;;;5055449;28;20107;-66
2022/01/08 02:17:43;;;;;;;29.07;18.20;;;76.80;2227.20;;;;;;5055289;28;20363;-66
2022/01/08 02:20:10;;;;;;;27.60;17.67;;;76.80;2227.20;;;;;;5055149;28;20027;-66
2022/01/08 02:22:36;;;;;;;28.43;18.03;;;76.80;2227.20;;;;;;5055993;28;20116;-66
2022/01/08 02:25:03;;;;;;;31.63;18.77;;;76.80;2227.20;;;;;;5055601;28;20104;-66
2022/01/08 02:27:29;;;;;;;29.50;17.90;;;76.90;2227.20;;;;;;5055311;28;20037;-66
2022/01/08 02:29:55;;;;;;;32.23;18.40;;;76.80;2227.20;;;;;;5055492;28;20021;-66
2022/01/08 02:32:29;;;;;;;33.50;20.47;;;76.90;2227.20;;;;;;5055070;28;20025;-66
2022/01/08 02:34:55;;;;;;;28.38;18.35;;;76.90;2227.20;;;;;;5055511;28;20032;-66
2022/01/08 02:37:29;;;;;;;31.27;18.83;;;76.90;2227.20;;;;;;5055300;28;20398;-66
2022/01/08 02:39:56;;;;;;;28.17;17.77;;;76.90;2227.20;;;;;;5055048;28;20017;-66
2022/01/08 02:42:24;;;;;;;29.87;18.80;;;76.90;2227.20;;;;;;5054859;28;20032;-66
2022/01/08 02:44:50;;;;;;;27.33;18.07;;;76.90;2227.20;;;;;;5055111;28;20376;-66
2022/01/08 02:47:17;;;;;;;30.37;18.83;;;77.00;2227.20;;;;;;5055152;28;20025;-67
2022/01/08 02:49:43;;;;;;;29.47;17.77;;;77.00;2227.20;;;;;;5054782;28;20141;-66
2022/01/08 02:52:10;;;;;;;28.40;18.67;;;77.00;2227.20;;;;;;5054788;28;20090;-66
2022/01/08 02:54:36;;;;;;;28.00;17.70;;;77.00;2227.20;;;;;;5054926;28;20056;-66
2022/01/08 02:57:02;;;;;;;26.50;18.40;;;77.00;2227.20;;;;;;5054760;28;20064;-66
2022/01/08 02:59:28;;;;;;;30.93;20.03;;;77.00;2227.20;;;;;;5054312;28;20045;-66
2022/01/08 03:01:54;;;;;;;30.10;19.70;;;77.00;2227.20;;;;;;5054546;28;20033;-66
2022/01/08 03:04:21;;;;;;;29.50;18.47;;;77.00;2227.20;;;;;;5054892;28;20373;-66
2022/01/08 03:06:47;;;;;;;28.07;18.10;;;77.00;2227.20;;;;;;5054363;28;20033;-66
2022/01/08 03:09:13;;;;;;;28.07;18.50;;;77.00;2227.20;;;;;;5054585;28;20223;-66
2022/01/08 03:11:39;;;;;;;39.83;18.03;;;77.00;2227.20;;;;;;5054304;28;20028;-66
2022/01/08 03:14:07;;;;;;;37.67;17.57;;;77.00;2227.20;;;;;;5054326;28;20370;-66
2022/01/08 03:16:34;;;;;;;32.00;17.83;;;77.00;2227.20;;;;;;5054250;28;20520;-66
2022/01/08 03:19:09;;;;;;;29.50;17.73;;;77.00;2227.20;;;;;;5054365;28;20025;-66
2022/01/08 03:21:37;;;;;;;31.13;18.33;;;77.00;2227.20;;;;;;5054100;28;20588;-65
2022/01/08 03:24:06;;;;;;;29.90;17.83;;;76.90;2227.20;;;;;;5054276;28;20066;-66
2022/01/08 03:26:32;;;;;;;31.97;19.57;;;76.90;2227.20;;;;;;5054030;28;20033;-66
2022/01/08 03:28:58;;;;;;;29.77;18.37;;;77.00;2227.20;;;;;;5053445;28;20021;-66
2022/01/08 03:31:26;;;;;;;29.30;18.80;;;76.90;2227.20;;;;;;5053990;28;20055;-66
2022/01/08 03:33:53;;;;;;;28.07;18.40;;;76.90;2227.20;;;;;;5054253;28;20028;-66
2022/01/08 03:36:21;;;;;;;29.30;18.83;;;77.00;2227.20;;;;;;5054309;28;20078;-66
2022/01/08 03:38:48;;;;;;;28.63;18.43;;;77.00;2227.20;;;;;;5053875;28;20029;-66
2022/01/08 03:41:14;;;;;;;28.53;18.23;;;77.00;2227.20;;;;;;5054066;28;20033;-66
2022/01/08 03:43:40;;;;;;;30.70;18.33;;;77.00;2227.20;;;;;;5053924;28;20033;-66
2022/01/08 03:46:06;;;;;;;28.60;17.30;;;77.00;2227.20;;;;;;5053825;28;20052;-66
2022/01/08 03:49:12;;;;;;;28.40;18.43;;;77.00;2227.20;;;;;;5054046;28;20029;-66
2022/01/08 03:51:32;;;;;;;31.60;18.37;;;76.90;2227.20;;;;;;5053080;28;20393;-66
2022/01/08 03:53:58;;;;;;;28.10;18.60;;;77.00;2227.20;;;;;;5053445;28;20036;-66
2022/01/08 03:56:25;;;;;;;27.70;17.73;;;77.00;2227.20;;;;;;5053637;28;20028;-66
2022/01/08 03:58:51;;;;;;;33.10;18.37;;;77.00;2227.20;;;;;;5053610;28;20555;-66
2022/01/08 04:01:17;;;;;;;29.23;18.00;;;77.00;2227.20;;;;;;5053373;28;20025;-66
2022/01/08 04:03:43;;;;;;;27.13;18.40;;;77.00;2227.20;;;;;;5053867;28;20029;-66
2022/01/08 04:06:09;;;;;;;28.77;18.27;;;77.00;2227.20;;;;;;5053357;28;20033;-66
2022/01/08 04:08:35;;;;;;;28.27;18.17;;;77.00;2227.20;;;;;;5053456;28;20466;-66
2022/01/08 04:11:02;;;;;;;27.73;18.23;;;77.10;2227.20;;;;;;5053475;28;20021;-66
2022/01/08 04:13:31;;;;;;;27.80;18.70;;;77.10;2227.20;;;;;;5053335;28;20040;-66
2022/01/08 04:16:06;;;;;;;28.87;17.70;;;77.10;2227.20;;;;;;5053196;28;20025;-66
2022/01/08 04:18:32;;;;;;;26.87;17.47;;;77.10;2227.20;;;;;;5053751;28;20043;-66
2022/01/08 04:23:33;;;;;;;30.17;18.23;;;77.10;2227.20;;;;;;5053682;28;20064;-66
2022/01/08 04:25:59;;;;;;;31.30;19.23;;;77.10;2227.20;;;;;;5053283;28;20025;-66
2022/01/08 04:28:25;;;;;;;34.47;18.77;;;77.10;2227.20;;;;;;5035474;28;20044;-66
2022/01/08 04:30:50;;;;;;;28.73;18.70;;;77.10;2227.20;;;;;;5053547;28;20108;-66
2022/01/08 04:33:16;;;;;;;27.87;18.40;;;77.00;2227.20;;;;;;5053198;28;20036;-66
2022/01/08 04:35:42;;;;;;;29.93;18.43;;;77.00;2227.20;;;;;;5053252;28;20017;-66
2022/01/08 04:38:08;;;;;;;28.87;19.13;;;77.10;2227.20;;;;;;5053770;28;20403;-66
2022/01/08 04:40:35;;;;;;;31.35;18.80;;;77.10;2227.20;;;;;;5055760;28;20028;-66
2022/01/08 04:43:02;;;;;;;28.23;18.63;;;77.10;2227.20;;;;;;5057287;28;20029;-66
2022/01/08 04:45:31;;;;;;;30.57;18.93;;;77.10;2227.20;;;;;;5057224;28;20017;-66
2022/01/08 04:47:58;;;;;;;32.87;17.90;;;77.10;2227.20;;;;;;5057205;28;20033;-66
2022/01/08 04:50:26;;;;;;;30.13;18.63;;;77.10;2227.20;;;;;;5056922;28;20504;-66
2022/01/08 04:52:52;;;;;;;30.73;18.97;;;77.10;2227.20;;;;;;5039222;28;20431;-66
2022/01/08 04:55:19;;;;;;;30.87;19.47;;;77.10;2227.20;;;;;;5056963;28;20075;-66
2022/01/08 04:57:44;;;;;;;37.10;23.10;;;77.20;2227.20;;;;;;5056989;28;20477;-66
2022/01/08 05:00:11;;;;;;;36.87;21.70;;;77.20;2227.20;;;;;;5057244;28;20108;-66
2022/01/08 05:02:37;;;;;;;36.80;21.77;;;77.20;2227.20;;;;;;5057074;28;20039;-66
2022/01/08 05:05:03;;;;;;;30.50;19.67;;;77.20;2227.20;;;;;;5057075;28;20029;-66
2022/01/08 05:07:29;;;;;;;31.37;19.93;;;77.20;2227.20;;;;;;5056779;28;20075;-66
2022/01/08 05:09:55;;;;;;;33.20;20.27;;;77.20;2227.20;;;;;;5056583;28;20025;-66
2022/01/08 05:12:21;;;;;;;33.10;19.37;;;77.30;2227.20;;;;;;5057051;28;20033;-66
2022/01/08 05:14:47;;;;;;;33.60;19.90;;;77.20;2227.20;;;;;;5056805;28;20025;-66
2022/01/08 05:17:14;;;;;;;30.87;19.47;;;77.30;2227.20;;;;;;5056629;28;20501;-66
2022/01/08 05:19:48;;;;;;;31.73;19.20;;;77.20;2227.20;;;;;;5056522;28;20028;-66
2022/01/08 05:22:23;;;;;;;30.70;19.43;;;77.30;2227.20;;;;;;5056364;28;20454;-66
2022/01/08 05:24:49;;;;;;;34.47;21.23;;;77.30;2227.20;;;;;;5056608;28;20032;-66
2022/01/08 05:27:18;;;;;;;31.03;20.07;;;77.30;2227.20;;;;;;5056602;28;20048;-66
2022/01/08 05:29:47;;;;;;;34.27;20.97;;;77.30;2227.20;;;;;;5056463;28;20025;-66
2022/01/08 05:32:16;;;;;;;32.93;21.13;;;77.30;2227.20;;;;;;5056469;28;20032;-66
2022/01/08 05:34:47;;;;;;;36.00;20.47;;;77.30;2227.20;;;;;;5056397;28;20021;-66
2022/01/08 05:37:14;;;;;;;31.37;19.80;;;77.30;2227.20;;;;;;5056075;28;20518;-66
2022/01/08 05:39:40;;;;;;;32.23;20.47;;;77.30;2227.20;;;;;;5056081;28;20028;-66
2022/01/08 05:42:06;;;;;;;34.23;20.73;;;77.30;2227.20;;;;;;5055918;28;20035;-66
2022/01/08 05:44:33;;;;;;;31.27;20.30;;;77.30;2227.20;;;;;;5056172;28;20018;-66
2022/01/08 05:46:59;;;;;;;30.70;20.57;;;77.30;2227.20;;;;;;5056008;28;20036;-66
2022/01/08 05:49:25;;;;;;;33.33;20.97;;;77.30;2227.20;;;;;;5056336;28;20018;-66
2022/01/08 05:51:51;;;;;;;33.20;20.97;;;77.30;2227.20;;;;;;5055425;28;20079;-66
2022/01/08 05:54:17;;;;;;;34.13;21.13;;;77.30;2227.20;;;;;;5056203;28;20024;-65
2022/01/08 05:56:43;;;;;;;33.33;20.20;;;77.40;2227.20;;;;;;5055756;28;20385;-66
2022/01/08 05:59:09;;;;;;;30.37;19.57;;;77.40;2227.20;;;;;;5056138;28;20543;-66
2022/01/08 06:01:35;;;;;;;30.23;20.10;;;77.30;2227.20;;;;;;5055626;28;20474;-66
2022/01/08 06:04:02;;;;;;;29.23;19.77;;;77.40;2227.20;;;;;;5055842;28;20021;-66
2022/01/08 06:06:28;;;;;;;31.80;20.60;;;77.40;2227.20;;;;;;5055642;28;20025;-66
2022/01/08 06:08:54;;;;;;;42.40;26.67;;;77.40;2227.20;;;;;;5055936;28;20032;-66
2022/01/08 06:11:20;;;;;;;42.30;26.90;;;77.40;2227.20;;;;;;5055563;28;20033;-66
2022/01/08 06:13:46;;;;;;;42.83;26.83;;;77.40;2227.20;;;;;;5055889;28;20032;-66
2022/01/08 06:16:12;;;;;;;41.37;24.87;;;77.40;2227.20;;;;;;5055548;28;20374;-66
2022/01/08 06:18:39;;;;;;;37.77;24.50;;;77.40;2227.20;;;;;;5037563;28;20029;-66
2022/01/08 06:21:05;;;;;;;34.17;23.33;;;77.40;2227.20;;;;;;5055021;28;20505;-66
2022/01/08 06:23:32;;;;;;;38.00;23.47;;;77.40;2227.20;;;;;;5055406;28;20032;-66
2022/01/08 06:25:58;;;;;;;52.43;30.90;;;77.40;2227.20;;;;;;5055165;28;20127;-66
2022/01/08 06:28:24;;;;;;;35.70;22.70;;;77.40;2227.20;;;;;;5055527;28;20075;-66
2022/01/08 06:30:50;;;;;;;31.63;21.10;;;77.40;2227.20;;;;;;5055315;28;20020;-66
2022/01/08 06:33:18;;;;;;;35.47;23.43;;;77.40;2227.20;;;;;;5055507;28;20082;-66
2022/01/08 06:35:44;;;;;;;50.63;35.17;;;77.40;2227.20;;;;;;5055142;28;20516;-66
2022/01/08 06:38:10;;;;;;;43.90;30.90;;;77.40;2227.20;;;;;;5055118;28;20469;-66
2022/01/08 06:40:36;;;;;;;42.13;28.13;;;77.40;2227.20;;;;;;5055039;28;20021;-66
2022/01/08 06:43:03;;;;;;;56.90;35.93;;;77.40;2227.20;;;;;;5054985;28;20040;-66
2022/01/08 06:45:28;;;;;;;55.77;35.47;;;77.50;2227.20;;;;;;5055035;28;20047;-66
2022/01/08 06:47:54;;;;;;;58.10;35.90;;;77.40;2227.20;;;;;;5055037;28;20107;-66
2022/01/08 06:50:20;;;;;;;46.70;29.53;;;77.50;2227.20;;;;;;5054723;28;20099;-66
2022/01/08 06:52:46;;;;;;;60.40;35.70;;;77.50;2227.20;;;;;;5055198;28;20473;-66
2022/01/08 06:55:12;;;;;;;69.90;41.90;;;77.50;2227.20;;;;;;5054764;28;20025;-66
2022/01/08 06:57:38;;;;;;;68.73;41.50;;;77.50;2227.20;;;;;;5054714;28;20021;-66
2022/01/08 07:00:05;;;;;;;60.10;38.23;;;77.50;2227.20;;;;;;5054658;28;20021;-66
2022/01/08 07:02:31;;;;;;;66.33;39.93;;;77.50;2227.20;;;;;;5054121;28;20636;-66
2022/01/08 07:04:57;;;;;;;68.60;42.03;;;77.50;2227.20;;;;;;5036421;28;20104;-66
2022/01/08 07:07:23;;;;;;;74.10;44.37;;;77.60;2227.20;;;;;;5034592;28;20032;-66
2022/01/08 07:09:49;;;;;;;67.50;38.83;;;77.60;2227.20;;;;;;5034096;28;20024;-67
2022/01/08 07:12:15;;;;;;;58.13;33.33;;;77.50;2227.20;;;;;;5034173;28;20030;-70
2022/01/08 07:14:41;;;;;;;79.43;44.30;;;77.60;2227.20;;;;;;5033871;28;20021;-66
2022/01/08 07:17:06;;;;;;;79.90;44.00;;;77.60;2227.20;;;;;;5033775;28;20029;-67
2022/01/08 07:19:32;;;;;;;69.90;42.67;;;77.70;2227.20;;;;;;5033714;28;20140;-66
2022/01/08 07:22:00;;;;;;;51.13;31.47;;;77.70;2227.20;;;;;;5033472;28;20057;-67
2022/01/08 07:24:26;;;;;;;54.73;32.47;;;77.70;2227.20;;;;;;5033959;28;20018;-66
2022/01/08 07:26:52;;;;;;;42.23;27.23;;;77.70;2227.20;;;;;;5034171;28;20470;-66
2022/01/08 07:29:18;;;;;;;46.00;29.80;;;102.40;2227.20;;;;;;5033971;28;20032;-66
2022/01/08 07:31:43;;;;;;;51.20;34.13;;;102.40;2227.20;;;;;;5033951;28;20033;-66
2022/01/08 07:34:09;;;;;;;58.53;35.13;;;102.40;2227.20;;;;;;5032635;28;20025;-66
2022/01/08 07:36:35;;;;;;;62.87;40.03;;;102.40;2227.20;;;;;;5032750;28;20029;-66
2022/01/08 07:39:01;;;;;;;56.10;35.83;;;102.40;2227.20;;;;;;5032039;28;20501;-66
2022/01/08 07:41:27;;;;;;;51.57;33.50;;;102.40;2227.20;;;;;;5031978;28;20041;-67
2022/01/08 07:43:54;;;;;;;45.33;30.95;;;102.50;2227.20;;;;;;5032013;28;20098;-66
2022/01/08 07:46:20;;;;;;;58.00;37.40;;;102.50;2227.20;;;;;;5033673;28;20032;-67
2022/01/08 07:48:46;;;;;;;57.80;38.10;;;102.50;2227.20;;;;;;5033765;28;20108;-66
2022/01/08 07:51:12;;;;;;;65.57;42.47;;;102.50;2227.20;;;;;;5033670;28;20103;-66
2022/01/08 07:53:38;;;;;;;58.20;36.30;;;102.50;2227.20;;;;;;5033822;28;20080;-66
2022/01/08 07:56:04;;;;;;;65.53;40.70;;;102.50;2227.20;;;;;;5033791;28;20501;-66
2022/01/08 07:58:30;;;;;;;413.57;233.67;;;102.50;2227.20;;;;;;5033961;28;20394;-66
2022/01/08 08:00:57;;;;;;;109.20;66.83;;;102.60;2227.20;;;;;;5033432;28;20021;-66
2022/01/08 08:03:23;;;;;;;140.67;87.97;;;102.60;2227.20;;;;;;5033710;28;20033;-66
2022/01/08 08:05:49;;;;;;;56.00;34.83;;;102.60;2227.20;;;;;;5033562;28;20029;-66
2022/01/08 08:08:17;;;;;;;53.33;31.13;;;102.60;2227.20;;;;;;5033571;28;20028;-66
2022/01/08 08:10:43;;;;;;;53.03;32.47;;;102.80;2227.20;;;;;;5033749;28;20040;-66
2022/01/08 08:13:09;;;;;;;45.40;27.30;;;102.80;2227.20;;;;;;5033468;28;20497;-66
2022/01/08 08:15:35;;;;;;;43.53;26.77;;;102.80;2227.20;;;;;;5042390;28;20021;-66
2022/01/08 08:18:01;;;;;;;39.47;25.98;;;102.80;2227.20;;;;;;5034452;28;20035;-66
2022/01/08 08:20:27;;;;;;;36.53;24.27;;;102.80;2227.20;;;;;;5032981;28;20056;-66
2022/01/08 08:22:52;;;;;;;27.80;19.50;;;102.80;2227.20;;;;;;5032184;28;20037;-66
2022/01/08 08:25:18;;;;;;;29.65;19.48;;;102.80;2227.20;;;;;;5032677;28;20017;-67
2022/01/08 08:27:44;;;;;;;28.33;18.90;;;102.80;2227.20;;;;;;5032637;28;20021;-67
2022/01/08 08:30:11;;;;;;;33.57;22.43;;;102.90;2227.20;;;;;;5032241;28;20022;-67
2022/01/08 08:32:38;;;;;;;56.03;37.50;;;102.90;2227.20;;;;;;5032881;28;20543;-67
2022/01/08 08:35:04;;;;;;;63.38;40.58;;;102.90;2227.20;;;;;;5032672;28;20120;-67
2022/01/08 08:37:33;;;;;;;139.10;92.43;;;102.90;2227.20;;;;;;5033165;28;20096;-67
2022/01/08 08:39:59;;;;;;;138.97;89.80;;;103.00;2227.20;;;;;;5032869;28;20390;-67
2022/01/08 08:42:25;;;;;;;138.68;59.75;;;103.00;2227.20;;;;;;5033850;28;20037;-66
2022/01/08 08:44:51;;;;;;;125.32;59.78;;;103.00;2227.20;;;;;;5015403;28;20026;-67
2022/01/08 08:47:17;;;;;;;104.17;56.87;;;103.00;2227.20;;;;;;5032976;28;20393;-67
2022/01/08 08:49:43;;;;;;;71.33;41.20;;;103.00;2227.20;;;;;;5032684;28;20386;-67
2022/01/08 08:52:08;;;;;;;59.55;35.13;;;102.90;2227.20;;;;;;5032652;28;20025;-67
2022/01/08 08:54:34;;;;;;;66.25;42.30;;;102.90;2227.20;;;;;;5032572;28;20025;-66
2022/01/08 08:57:00;;;;;;;60.80;36.55;;;103.00;2227.20;;;;;;5032753;28;20029;-66
2022/01/08 08:59:26;;;;;;;42.30;27.10;;;103.00;2227.20;;;;;;5032583;28;20025;-66
2022/01/08 09:01:52;;;;;;;39.17;24.83;;;103.00;2227.20;;;;;;5032637;28;20030;-67
2022/01/08 09:04:17;;;;;;;74.65;42.28;;;103.00;2227.20;;;;;;5032522;28;20053;-67
2022/01/08 09:06:43;;;;;;;94.90;52.00;;;103.10;2227.20;;;;;;5032729;28;20034;-66
2022/01/08 09:09:09;;;;;;;103.97;56.10;;;103.00;2227.20;;;;;;5032555;28;20017;-67
2022/01/08 09:11:35;;;;;;;84.55;46.67;;;103.00;2227.20;;;;;;5032706;28;20027;-67
2022/01/08 09:14:01;;;;;;;84.38;48.38;;;103.10;2227.20;;;;;;5032647;28;20474;-65
2022/01/08 09:16:27;;;;;;;73.75;43.53;;;103.00;2227.20;;;;;;5032373;28;20079;-66
2022/01/08 09:18:53;;;;;;;66.00;40.90;;;103.00;2227.20;;;;;;5032706;28;20116;-66
2022/01/08 09:21:19;;;;;;;126.05;66.85;;;103.10;2227.20;;;;;;5014447;28;20057;-67
2022/01/08 09:23:45;;;;;;;522.80;260.25;;;103.10;2227.20;;;;;;5032704;28;20030;-67
2022/01/08 09:26:11;;;;;;;473.73;230.80;;;103.00;2227.20;;;;;;5032366;28;20052;-67
2022/01/08 09:28:38;;;;;;;124.93;66.15;;;103.10;2227.20;;;;;;5035910;28;20040;-67
2022/01/08 09:31:03;;;;;;;225.77;110.30;;;103.00;2227.20;;;;;;5043114;28;20366;-65
2022/01/08 09:33:31;;;;;;;299.83;181.10;;;103.10;2227.20;;;;;;5045922;28;20039;-64
2022/01/08 09:35:57;;;;;;;268.52;146.18;;;103.10;2227.20;;;;;;5044610;28;20096;-66
2022/01/08 09:38:23;;;;;;;299.37;142.97;;;103.10;2227.20;;;;;;5044006;28;20036;-65
2022/01/08 09:40:50;;;;;;;501.17;212.95;;;103.10;2227.20;;;;;;5042922;28;20533;-64
2022/01/08 09:43:17;;;;;;;167.67;74.20;;;103.10;2227.20;;;;;;5049918;28;20039;-71
2022/01/08 09:45:44;;;;;;;341.80;149.55;;;103.10;2227.20;;;;;;5045633;28;20029;-71
2022/01/08 09:48:09;;;;;;;246.60;109.45;;;103.10;2227.20;;;;;;5043844;28;20084;-66
2022/01/08 09:50:35;;;;;;;251.07;120.43;;;103.10;2227.20;;;;;;5043582;28;20032;-64
2022/01/08 09:53:01;;;;;;;209.70;101.03;;;103.20;2227.20;;;;;;5042622;28;20028;-65
2022/01/08 09:55:28;;;;;;;348.85;154.27;;;103.20;2227.20;;;;;;5035359;28;20040;-65
2022/01/08 09:57:55;;;;;;;308.95;145.55;;;103.20;2227.20;;;;;;5035521;28;20474;-65
2022/01/08 10:00:22;;;;;;;433.05;213.73;;;103.20;2227.20;;;;;;5038821;28;20061;-66
2022/01/08 10:02:50;;;;;;;215.93;105.35;;;103.20;2227.20;;;;;;5045820;28;20037;-65
2022/01/08 10:05:17;;;;;;;405.08;210.57;;;103.20;2227.20;;;;;;5048516;28;20466;-65
2022/01/08 10:08:04;;;;;;;227.70;104.30;;;103.20;2227.20;;;;;;5039267;28;20060;-66
2022/01/08 10:10:29;;;;;;;548.53;285.55;;;103.30;2227.20;;;;;;5044248;28;20158;-65
2022/01/08 10:12:59;;;;;;;462.90;247.57;;;103.20;2227.20;;;;;;5043433;28;20056;-64
2022/01/08 10:18:20;;;;;;;431.92;211.38;;;103.20;2227.20;;;;;;5040753;28;20031;-64
2022/01/08 10:20:49;;;;;;;267.27;110.10;;;103.20;2227.20;;;;;;5042498;28;20103;-65
2022/01/08 10:23:23;;;;;;;238.95;115.97;;;103.20;2227.20;;;;;;5043844;28;20037;-65
2022/01/08 10:26:10;;;;;;;269.35;141.95;;;103.20;2227.20;;;;;;5044580;28;20097;-64
2022/01/08 10:28:39;;;;;;;146.57;68.72;;;103.20;2227.20;;;;;;5041478;28;20041;-65
2022/01/08 10:31:20;;;;;;;103.53;57.55;;;103.20;2227.20;;;;;;5042501;28;20097;-65
2022/01/08 10:33:49;;;;;;;110.13;70.28;;;103.10;2227.20;;;;;;5035557;28;20037;-65
2022/01/08 10:36:30;;;;;;;89.95;59.90;;;103.10;2227.20;;;;;;5030901;28;20025;-65
2022/01/08 10:38:59;;;;;;;89.78;62.53;;;103.00;2227.20;;;;;;5030880;28;20060;-65
2022/01/08 10:41:26;;;;;;;64.82;45.15;;;103.00;2227.20;;;;;;5033230;28;20079;-64
2022/01/08 10:44:29;;;;;;;55.88;35.35;;;103.00;2227.20;;;;;;5033392;28;20449;-64
2022/01/08 10:47:07;;;;;;;69.95;43.40;;;103.00;2227.20;;;;;;4933838;29;20059;-65
2022/01/08 10:49:37;;;;;;;65.15;39.58;;;103.00;2227.20;;;;;;4931286;29;20028;-65
2022/01/08 10:52:23;;;;;;;52.38;33.75;;;103.10;2227.20;;;;;;4933765;29;20090;-65
2022/01/08 10:54:57;;;;;;;47.77;31.87;;;103.10;2227.20;;;;;;4933662;29;20054;-65
2022/01/08 10:57:35;;;;;;;45.70;27.27;;;103.10;2227.20;;;;;;4933626;29;20094;-65
2022/01/08 11:00:03;;;;;;;47.35;30.95;;;103.00;2227.20;;;;;;4933592;29;20528;-64
2022/01/08 11:02:31;;;;;;;63.67;36.05;;;103.00;2227.20;;;;;;4933704;29;20493;-65
2022/01/08 11:04:56;;;;;;;67.75;40.22;;;103.00;2227.20;;;;;;4933935;29;20582;-65
2022/01/08 11:07:25;;;;;;;46.60;29.73;;;103.00;2227.20;;;;;;4933046;29;20222;-65
2022/01/08 11:10:04;;;;;;;47.45;30.60;;;103.00;2227.20;;;;;;4933405;29;20024;-72
2022/01/08 11:12:37;;;;;;;44.25;28.10;;;103.00;2227.20;;;;;;4932392;29;20054;-78
2022/01/08 11:17:42;;;;;;;50.60;30.73;;;102.90;2227.20;;;;;;4933492;29;20524;-68
2022/01/08 11:20:17;;;;;;;49.75;30.73;;;103.00;2227.20;;;;;;4952832;28;20363;-67
2022/01/08 11:22:57;;;;;;;51.90;31.00;;;102.90;2227.20;;;;;;5032551;28;20103;-68
2022/01/08 11:25:30;;;;;;;57.42;32.30;;;102.90;2227.20;;;;;;5031495;28;20025;-68
2022/01/08 11:28:15;;;;;;;58.47;34.70;;;102.90;2227.20;;;;;;5030542;28;20025;-66
2022/01/08 11:30:45;;;;;;;54.95;32.70;;;102.90;2227.20;;;;;;5030978;28;20494;-67
2022/01/08 11:33:18;;;;;;;65.13;37.75;;;103.00;2227.20;;;;;;5031520;28;20116;-65
2022/01/08 11:35:46;;;;;;;51.83;31.38;;;102.90;2227.20;;;;;;5028533;28;20049;-67
2022/01/08 11:38:14;;;;;;;52.83;31.67;;;102.90;2227.20;;;;;;5029942;28;20036;-68
2022/01/08 11:40:43;;;;;;;57.70;36.07;;;102.90;2227.20;;;;;;5031358;28;20057;-68
2022/01/08 11:43:12;;;;;;;54.47;34.03;;;102.90;2227.20;;;;;;5031720;28;20468;-69
2022/01/08 11:45:50;;;;;;;48.27;31.03;;;102.90;2227.20;;;;;;5032379;28;20469;-69
2022/01/08 11:48:26;;;;;;;49.10;30.17;;;102.90;2227.20;;;;;;5032791;28;20014;-68
2022/01/08 11:50:55;;;;;;;53.20;32.33;;;102.90;2227.20;;;;;;5030768;28;20021;-68
2022/01/08 11:53:27;;;;;;;46.97;29.17;;;102.90;2227.20;;;;;;5032398;28;20466;-67
2022/01/08 11:56:01;;;;;;;55.93;34.97;;;102.90;2227.20;;;;;;5032535;28;20021;-68
2022/01/08 11:58:35;;;;;;;48.55;32.67;;;102.90;2227.20;;;;;;5030141;28;20025;-68
2022/01/08 12:01:04;;;;;;;49.22;30.48;;;102.90;2227.20;;;;;;5032502;28;20014;-68
2022/01/08 12:03:50;;;;;;;46.28;29.88;;;102.90;2227.20;;;;;;5029898;28;20096;-66
2022/01/08 12:06:22;;;;;;;59.00;37.83;;;102.80;2227.20;;;;;;5030622;28;20076;-68
2022/01/08 12:09:07;;;;;;;89.57;51.40;;;102.80;2227.20;;;;;;5032427;28;20025;-68
2022/01/08 12:11:49;;;;;;;69.07;42.15;;;102.80;2227.20;;;;;;5032022;28;20520;-67
2022/01/08 12:14:42;;;;;;;61.33;37.08;;;102.80;2227.20;;;;;;5032195;28;20017;-67
2022/01/08 12:17:18;;;;;;;63.25;38.95;;;102.80;2227.20;;;;;;5028222;28;20049;-68
2022/01/08 12:19:53;;;;;;;65.93;40.47;;;102.80;2227.20;;;;;;5031251;28;20373;-66
2022/01/08 12:22:19;;;;;;;57.27;35.33;;;102.80;2227.20;;;;;;5030460;28;20108;-67
2022/01/08 12:24:58;;;;;;;56.00;34.87;;;102.80;2227.20;;;;;;5032462;28;20044;-68
2022/01/08 12:27:40;;;;;;;263.23;94.37;;;102.80;2227.20;;;;;;5031218;28;20489;-67
2022/01/08 12:30:15;;;;;;;132.45;62.13;;;102.80;2227.20;;;;;;5031380;28;20059;-68
2022/01/08 12:32:46;;;;;;;132.32;64.47;;;102.80;2227.20;;;;;;5013112;28;20038;-67